Thursday, April 19, 2018, 5:18 PM EDT
Back to Local

KCRW, Yeager Airport

Location: Charleston, WV, United States Lat: 38.367
Local Time: 5:18 PM EDT (21:18 GMT) Lon: -81.6
Time Zone: US/Eastern Elev: 980 ft

Show me the last for .
Show Decoded

2018-04-19 16:54 METAR KCRW 192054Z 33014G19KT 10SM FEW025 OVC044 07/M02 A3021 RMK AO2 SLP231
                 BINOVC T00721017 51020 =
2018-04-19 15:54 METAR KCRW 191954Z 29011G24KT 10SM BKN033 OVC060 07/M01 A3020 RMK AO2 SLP227
                 BINOVC T00671006 =
2018-04-19 15:18 METAR KCRW 191918Z 30014G22KT 10SM BKN031 07/M01 A3018 RMK AO2 T00671011 =
2018-04-19 14:54 METAR KCRW 191854Z 29009G17KT 10SM BKN029 07/M01 A3017 RMK AO2 SLP217 T00721006
                 =
2018-04-19 14:27 METAR KCRW 191827Z 29010G22KT 240V320 10SM BKN029 06/00 A3017 RMK AO2 T00610000
                 =
2018-04-19 13:54 METAR KCRW 191754Z 30015G22KT 10SM BKN031 06/M01 A3015 RMK AO2 SLP210 60004
                 T00611006 10078 20028 51030 =
2018-04-19 13:16 METAR KCRW 191716Z 30011G19KT 10SM BKN031 06/M01 A3013 =
2018-04-19 12:54 METAR KCRW 191654Z 28007KT 230V320 10SM BKN029 BKN080 06/M01 A3012 RMK AO2
                 SLP199 T00611006 =
2018-04-19 12:21 METAR KCRW 191621Z 32005G18KT 10SM BKN028 BKN080 06/00 A3011 RMK AO2 T00610000 =
2018-04-19 11:54 METAR KCRW 191554Z 32012G18KT 10SM OVC030 05/M01 A3010 RMK AO2 SLP192 BINOVC
                 T00501006 =
2018-04-19 10:54 METAR KCRW 191454Z 32014G19KT 10SM SCT021 BKN032 06/01 A3006 RMK AO2 RAE25
                 SLP177 P0001 60004 T00610011 51046 =
2018-04-19 10:35 METAR KCRW 191435Z VRB06KT 10SM SCT018 BKN047 06/02 A3004 RMK AO2 RAE25 P0000
                 T00560022 =
2018-04-19 09:54 METAR KCRW 191354Z COR 28006G16KT 10SM -RA FEW015 BKN029 OVC047 03/02 A3003 RMK
                 AO2 PK WND 31028/1307 WSHFT 1241 PRESRR SLP167 P0003 T00330017 =
2018-04-19 09:10 METAR KCRW 191310Z 31019G28KT 4SM -RA BKN021 OVC038 04/02 A2999 =
2018-04-19 09:01 METAR KCRW 191301Z 31015G27KT 8SM -RA SCT022 BKN030 OVC038 05/02 A2998 RMK AO2
                 WSHFT 1241 P0000 T00500017 =
2018-04-19 08:54 METAR KCRW 191254Z 31018G27KT 9SM -RA OVC035 06/02 A2997 RMK AO2 PK WND
                 28027/1235 DZB50E54RAB54 PRESRR SLP146 P0000 T00560017 =
2018-04-19 07:54 METAR KCRW 191154Z 27017G26KT 10SM OVC034 08/01 A2992 RMK AO2 PK WND 25026/1154
                 SLP127 60002 70003 T00780011 10133 20078 53033 =
2018-04-19 06:54 METAR KCRW 191054Z 29016G25KT 10SM SCT020 OVC036 08/02 A2987 RMK AO2 SLP110
                 T00830017 =
2018-04-19 05:54 METAR KCRW 190954Z 27010G19KT 10SM SCT020 OVC044 09/04 A2984 RMK AO2 RAE36
                 SLP098 P0000 T00940039 =
2018-04-19 05:37 METAR KCRW 190937Z 26006KT 10SM SCT020 OVC044 09/04 A2983 RMK AO2 RAE36 P0000
                 T00940044 =
2018-04-19 04:54 METAR KCRW 190854Z 29009G20KT 10SM -RA BKN014 BKN023 OVC050 10/05 A2982 RMK AO2
                 SLP090 P0001 60002 T01000050 53019 =
2018-04-19 03:54 METAR KCRW 190754Z 29008KT 240V310 9SM -RA BKN014 BKN021 OVC043 11/09 A2980 RMK
                 AO2 RAB08 SLP084 P0001 T01060089 =
2018-04-19 02:54 METAR KCRW 190654Z 30008G19KT 260V340 10SM BKN014 OVC050 12/09 A2977 RMK AO2
                 RAE12 SLP075 P0000 T01170094 =
2018-04-19 02:49 METAR KCRW 190649Z 31015G19KT 10SM BKN014 OVC050 12/09 A2976 RMK AO2 RAE12 P0000
                 =
2018-04-19 02:21 METAR KCRW 190621Z 31010KT 10SM FEW014 SCT035 OVC055 13/10 A2976 RMK AO2 RAE12
                 P0000 T01280100 =
2018-04-19 01:54 METAR KCRW 190554Z 31011G23KT 10SM -RA FEW015 BKN021 OVC050 13/10 A2976 RMK AO2
                 RAB35 SLP072 P0000 60001 T01330100 10211 20133 53038 =
2018-04-19 01:41 METAR KCRW 190541Z 29012G17KT 250V320 10SM -RA FEW015 BKN021 OVC050 14/11 A2976
                 RMK AO2 RAB35 P0000 T01390111 =
2018-04-19 00:54 METAR KCRW 190454Z COR 30014G21KT 10SM OVC043 14/12 A2973 RMK AO2 PK WND
                 31042/0428 WSHFT 0413 RAB16E53 PRESRR SLP064 P0001 T01390117 402610017 =
2018-04-19 00:29 METAR KCRW 190429Z 31030G42KT 10SM -RA BKN043 OVC055 16/11 A2970 RMK AO2 PK WND
                 31042/0428 WSHFT 0413 RAB16 PRESRR P0000 T01560106 =
2018-04-18 23:54 METAR KCRW 190354Z 21004KT 10SM FEW065 BKN090 17/07 A2963 RMK AO2 SLP030
                 T01670067 =
2018-04-18 22:54 METAR KCRW 190254Z 14003KT 10SM SCT090 SCT150 16/07 A2964 RMK AO2 SLP036
                 T01560072 58001 =
2018-04-18 21:54 METAR KCRW 190154Z 00000KT 10SM FEW060 SCT075 18/06 A2965 RMK AO2 SLP039
                 T01780061 =
2018-04-18 20:54 METAR KCRW 190054Z 03004KT 10SM FEW060 BKN080 BKN100 19/06 A2966 RMK AO2 SLP043
                 T01940061 =
2018-04-18 19:54 METAR KCRW 182354Z 36005KT 10SM SCT060 21/07 A2965 RMK AO2 SLP036 T02110067
                 10261 20194 53003 =
2018-04-18 18:54 METAR KCRW 182254Z 35005KT 10SM FEW065 23/07 A2963 RMK AO2 SLP031 T02330072 =
2018-04-18 17:54 METAR KCRW 182154Z 34005KT 10SM FEW065 24/08 A2964 RMK AO2 SLP033 T02440078 =

Support USWX by starting your Amazon purchase here.